sensor_id;sensor_type;location;lat;lon;timestamp;P1;durP1;ratioP1;P2;durP2;ratioP2
1004;SDS011;491;53.480;10.174;2023-08-01T00:01:23;3.20;;;1.17;;
1004;SDS011;491;53.480;10.174;2023-08-01T00:03:49;1.50;;;0.70;;
1004;SDS011;491;53.480;10.174;2023-08-01T00:06:15;1.87;;;0.77;;
1004;SDS011;491;53.480;10.174;2023-08-01T00:08:40;2.27;;;1.40;;
1004;SDS011;491;53.480;10.174;2023-08-01T00:11:06;2.70;;;0.73;;
1004;SDS011;491;53.480;10.174;2023-08-01T00:13:34;0.93;;;0.43;;
1004;SDS011;491;53.480;10.174;2023-08-01T00:16:00;2.47;;;0.73;;
1004;SDS011;491;53.480;10.174;2023-08-01T00:18:26;1.60;;;0.80;;
1004;SDS011;491;53.480;10.174;2023-08-01T00:20:52;1.67;;;0.80;;
1004;SDS011;491;53.480;10.174;2023-08-01T00:23:18;2.40;;;0.83;;
1004;SDS011;491;53.480;10.174;2023-08-01T00:25:44;1.20;;;0.40;;
1004;SDS011;491;53.480;10.174;2023-08-01T00:28:16;1.20;;;0.77;;
1004;SDS011;491;53.480;10.174;2023-08-01T00:30:42;2.50;;;0.33;;
1004;SDS011;491;53.480;10.174;2023-08-01T00:33:08;2.57;;;0.60;;
1004;SDS011;491;53.480;10.174;2023-08-01T00:35:33;2.23;;;0.90;;
1004;SDS011;491;53.480;10.174;2023-08-01T00:37:59;2.10;;;0.47;;
1004;SDS011;491;53.480;10.174;2023-08-01T00:40:32;2.63;;;0.83;;
1004;SDS011;491;53.480;10.174;2023-08-01T00:42:58;2.30;;;0.90;;
1004;SDS011;491;53.480;10.174;2023-08-01T00:45:24;1.40;;;0.93;;
1004;SDS011;491;53.480;10.174;2023-08-01T00:47:54;1.93;;;0.93;;
1004;SDS011;491;53.480;10.174;2023-08-01T00:50:20;1.77;;;0.50;;
1004;SDS011;491;53.480;10.174;2023-08-01T00:52:47;1.97;;;0.90;;
1004;SDS011;491;53.480;10.174;2023-08-01T00:55:13;2.73;;;0.90;;
1004;SDS011;491;53.480;10.174;2023-08-01T00:57:39;2.83;;;0.50;;
1004;SDS011;491;53.480;10.174;2023-08-01T01:00:06;2.10;;;0.80;;
1004;SDS011;491;53.480;10.174;2023-08-01T01:02:32;1.23;;;0.60;;
1004;SDS011;491;53.480;10.174;2023-08-01T01:04:58;1.20;;;0.60;;
1004;SDS011;491;53.480;10.174;2023-08-01T01:07:24;2.70;;;0.40;;
1004;SDS011;491;53.480;10.174;2023-08-01T01:09:51;3.23;;;0.30;;
1004;SDS011;491;53.480;10.174;2023-08-01T01:12:17;2.57;;;0.40;;
1004;SDS011;491;53.480;10.174;2023-08-01T01:14:43;3.27;;;1.00;;
1004;SDS011;491;53.480;10.174;2023-08-01T01:17:08;2.20;;;1.07;;
1004;SDS011;491;53.480;10.174;2023-08-01T01:19:34;1.70;;;0.50;;
1004;SDS011;491;53.480;10.174;2023-08-01T01:22:01;2.67;;;0.80;;
1004;SDS011;491;53.480;10.174;2023-08-01T01:24:28;2.13;;;0.50;;
1004;SDS011;491;53.480;10.174;2023-08-01T01:26:54;2.80;;;0.80;;
1004;SDS011;491;53.480;10.174;2023-08-01T01:29:21;5.30;;;0.80;;
1004;SDS011;491;53.480;10.174;2023-08-01T01:31:47;1.73;;;0.60;;
1004;SDS011;491;53.480;10.174;2023-08-01T01:34:13;1.80;;;0.40;;
1004;SDS011;491;53.480;10.174;2023-08-01T01:36:39;2.90;;;0.97;;
1004;SDS011;491;53.480;10.174;2023-08-01T01:39:05;2.70;;;0.90;;
1004;SDS011;491;53.480;10.174;2023-08-01T01:41:31;1.47;;;0.63;;
1004;SDS011;491;53.480;10.174;2023-08-01T01:43:57;3.87;;;0.90;;
1004;SDS011;491;53.480;10.174;2023-08-01T01:46:23;1.63;;;0.60;;
1004;SDS011;491;53.480;10.174;2023-08-01T01:48:49;1.57;;;0.73;;
1004;SDS011;491;53.480;10.174;2023-08-01T01:51:15;1.77;;;0.73;;
1004;SDS011;491;53.480;10.174;2023-08-01T01:53:41;2.00;;;0.73;;
1004;SDS011;491;53.480;10.174;2023-08-01T01:56:07;2.10;;;0.90;;
1004;SDS011;491;53.480;10.174;2023-08-01T01:58:33;1.57;;;1.13;;
1004;SDS011;491;53.480;10.174;2023-08-01T02:00:58;2.13;;;1.30;;
1004;SDS011;491;53.480;10.174;2023-08-01T02:03:24;1.87;;;1.20;;
1004;SDS011;491;53.480;10.174;2023-08-01T02:05:50;3.07;;;1.30;;
1004;SDS011;491;53.480;10.174;2023-08-01T02:08:16;2.20;;;1.20;;
1004;SDS011;491;53.480;10.174;2023-08-01T02:10:42;4.43;;;1.37;;
1004;SDS011;491;53.480;10.174;2023-08-01T02:13:08;2.50;;;1.60;;
1004;SDS011;491;53.480;10.174;2023-08-01T02:15:34;2.20;;;1.40;;
1004;SDS011;491;53.480;10.174;2023-08-01T02:18:00;3.23;;;1.30;;
1004;SDS011;491;53.480;10.174;2023-08-01T02:20:26;2.60;;;1.63;;
1004;SDS011;491;53.480;10.174;2023-08-01T02:22:53;2.90;;;1.60;;
1004;SDS011;491;53.480;10.174;2023-08-01T02:25:19;3.13;;;2.17;;
1004;SDS011;491;53.480;10.174;2023-08-01T02:27:45;2.80;;;2.03;;
1004;SDS011;491;53.480;10.174;2023-08-01T02:30:11;2.77;;;2.10;;
1004;SDS011;491;53.480;10.174;2023-08-01T02:32:37;2.60;;;1.87;;
1004;SDS011;491;53.480;10.174;2023-08-01T02:35:02;5.03;;;2.30;;
1004;SDS011;491;53.480;10.174;2023-08-01T02:37:28;3.83;;;1.83;;
1004;SDS011;491;53.480;10.174;2023-08-01T02:39:54;4.80;;;3.70;;
1004;SDS011;491;53.480;10.174;2023-08-01T02:42:20;4.97;;;3.53;;
1004;SDS011;491;53.480;10.174;2023-08-01T02:44:46;4.20;;;3.53;;
1004;SDS011;491;53.480;10.174;2023-08-01T02:47:12;3.17;;;2.87;;
1004;SDS011;491;53.480;10.174;2023-08-01T02:49:38;4.40;;;3.50;;
1004;SDS011;491;53.480;10.174;2023-08-01T02:52:04;4.33;;;3.93;;
1004;SDS011;491;53.480;10.174;2023-08-01T02:54:30;3.80;;;2.73;;
1004;SDS011;491;53.480;10.174;2023-08-01T02:56:56;3.47;;;2.63;;
1004;SDS011;491;53.480;10.174;2023-08-01T02:59:22;4.20;;;3.20;;
1004;SDS011;491;53.480;10.174;2023-08-01T03:01:48;4.37;;;3.97;;
1004;SDS011;491;53.480;10.174;2023-08-01T03:04:14;3.77;;;3.33;;
1004;SDS011;491;53.480;10.174;2023-08-01T03:06:40;4.70;;;4.20;;
1004;SDS011;491;53.480;10.174;2023-08-01T03:09:06;4.43;;;4.07;;
1004;SDS011;491;53.480;10.174;2023-08-01T03:11:33;4.40;;;4.00;;
1004;SDS011;491;53.480;10.174;2023-08-01T03:13:59;5.17;;;4.27;;
1004;SDS011;491;53.480;10.174;2023-08-01T03:16:25;9.20;;;4.50;;
1004;SDS011;491;53.480;10.174;2023-08-01T03:18:51;4.80;;;4.30;;
1004;SDS011;491;53.480;10.174;2023-08-01T03:21:17;4.90;;;4.33;;
1004;SDS011;491;53.480;10.174;2023-08-01T03:23:42;5.63;;;5.03;;
1004;SDS011;491;53.480;10.174;2023-08-01T03:26:08;5.27;;;4.43;;
1004;SDS011;491;53.480;10.174;2023-08-01T03:28:34;4.97;;;4.47;;
1004;SDS011;491;53.480;10.174;2023-08-01T03:31:01;6.80;;;5.17;;
1004;SDS011;491;53.480;10.174;2023-08-01T03:33:27;9.23;;;5.20;;
1004;SDS011;491;53.480;10.174;2023-08-01T03:35:53;5.90;;;5.30;;
1004;SDS011;491;53.480;10.174;2023-08-01T03:38:19;6.50;;;5.07;;
1004;SDS011;491;53.480;10.174;2023-08-01T03:40:45;7.23;;;5.10;;
1004;SDS011;491;53.480;10.174;2023-08-01T03:43:11;6.73;;;6.17;;
1004;SDS011;491;53.480;10.174;2023-08-01T03:45:37;5.60;;;4.93;;
1004;SDS011;491;53.480;10.174;2023-08-01T03:48:03;5.60;;;5.00;;
1004;SDS011;491;53.480;10.174;2023-08-01T03:50:29;5.40;;;4.90;;
1004;SDS011;491;53.480;10.174;2023-08-01T03:52:55;5.20;;;4.20;;
1004;SDS011;491;53.480;10.174;2023-08-01T03:55:21;5.50;;;4.93;;
1004;SDS011;491;53.480;10.174;2023-08-01T03:57:47;7.40;;;5.63;;
1004;SDS011;491;53.480;10.174;2023-08-01T04:00:13;6.93;;;6.23;;
1004;SDS011;491;53.480;10.174;2023-08-01T04:02:39;5.13;;;4.13;;
1004;SDS011;491;53.480;10.174;2023-08-01T04:05:06;6.83;;;6.13;;
1004;SDS011;491;53.480;10.174;2023-08-01T04:07:33;6.23;;;5.63;;
1004;SDS011;491;53.480;10.174;2023-08-01T04:09:59;6.37;;;5.47;;
1004;SDS011;491;53.480;10.174;2023-08-01T04:12:25;6.33;;;5.70;;
1004;SDS011;491;53.480;10.174;2023-08-01T04:14:51;8.47;;;6.93;;
1004;SDS011;491;53.480;10.174;2023-08-01T04:17:17;7.33;;;6.47;;
1004;SDS011;491;53.480;10.174;2023-08-01T04:19:43;7.73;;;5.97;;
1004;SDS011;491;53.480;10.174;2023-08-01T04:22:09;6.30;;;5.70;;
1004;SDS011;491;53.480;10.174;2023-08-01T04:24:34;6.00;;;5.40;;
1004;SDS011;491;53.480;10.174;2023-08-01T04:27:00;9.93;;;4.90;;
1004;SDS011;491;53.480;10.174;2023-08-01T04:29:26;8.10;;;6.10;;
1004;SDS011;491;53.480;10.174;2023-08-01T04:31:52;5.93;;;5.10;;
1004;SDS011;491;53.480;10.174;2023-08-01T04:34:18;6.60;;;5.60;;
1004;SDS011;491;53.480;10.174;2023-08-01T04:36:44;9.73;;;6.87;;
1004;SDS011;491;53.480;10.174;2023-08-01T04:39:10;6.90;;;5.67;;
1004;SDS011;491;53.480;10.174;2023-08-01T04:41:36;6.20;;;4.60;;
1004;SDS011;491;53.480;10.174;2023-08-01T04:44:02;5.90;;;5.30;;
1004;SDS011;491;53.480;10.174;2023-08-01T04:46:28;6.50;;;5.77;;
1004;SDS011;491;53.480;10.174;2023-08-01T04:48:54;6.70;;;5.53;;
1004;SDS011;491;53.480;10.174;2023-08-01T04:51:19;6.53;;;5.93;;
1004;SDS011;491;53.480;10.174;2023-08-01T04:53:45;5.80;;;5.30;;
1004;SDS011;491;53.480;10.174;2023-08-01T04:56:11;6.47;;;5.03;;
1004;SDS011;491;53.480;10.174;2023-08-01T04:58:37;5.70;;;5.20;;
1004;SDS011;491;53.480;10.174;2023-08-01T05:01:03;5.40;;;4.73;;
1004;SDS011;491;53.480;10.174;2023-08-01T05:03:29;7.37;;;5.53;;
1004;SDS011;491;53.480;10.174;2023-08-01T05:05:55;6.90;;;5.73;;
1004;SDS011;491;53.480;10.174;2023-08-01T05:08:21;8.07;;;5.70;;
1004;SDS011;491;53.480;10.174;2023-08-01T05:10:47;6.47;;;5.40;;
1004;SDS011;491;53.480;10.174;2023-08-01T05:13:13;6.50;;;4.20;;
1004;SDS011;491;53.480;10.174;2023-08-01T05:15:38;6.60;;;5.90;;
1004;SDS011;491;53.480;10.174;2023-08-01T05:18:04;5.20;;;4.70;;
1004;SDS011;491;53.480;10.174;2023-08-01T05:20:30;5.83;;;5.23;;
1004;SDS011;491;53.480;10.174;2023-08-01T05:22:58;6.27;;;5.23;;
1004;SDS011;491;53.480;10.174;2023-08-01T05:25:24;9.20;;;4.90;;
1004;SDS011;491;53.480;10.174;2023-08-01T05:27:50;6.73;;;4.97;;
1004;SDS011;491;53.480;10.174;2023-08-01T05:30:16;5.43;;;4.90;;
1004;SDS011;491;53.480;10.174;2023-08-01T05:32:42;6.67;;;4.20;;
1004;SDS011;491;53.480;10.174;2023-08-01T05:35:11;6.90;;;4.80;;
1004;SDS011;491;53.480;10.174;2023-08-01T05:37:37;5.40;;;4.90;;
1004;SDS011;491;53.480;10.174;2023-08-01T05:40:04;4.37;;;3.97;;
1004;SDS011;491;53.480;10.174;2023-08-01T05:42:30;6.20;;;4.90;;
1004;SDS011;491;53.480;10.174;2023-08-01T05:44:56;5.23;;;4.00;;
1004;SDS011;491;53.480;10.174;2023-08-01T05:47:22;5.40;;;3.93;;
1004;SDS011;491;53.480;10.174;2023-08-01T05:49:48;6.37;;;4.27;;
1004;SDS011;491;53.480;10.174;2023-08-01T05:52:14;4.30;;;3.90;;
1004;SDS011;491;53.480;10.174;2023-08-01T05:54:40;6.97;;;3.70;;
1004;SDS011;491;53.480;10.174;2023-08-01T05:57:06;6.47;;;4.17;;
1004;SDS011;491;53.480;10.174;2023-08-01T05:59:32;5.53;;;4.67;;
1004;SDS011;491;53.480;10.174;2023-08-01T06:01:58;4.30;;;3.53;;
1004;SDS011;491;53.480;10.174;2023-08-01T06:04:24;4.63;;;3.20;;
1004;SDS011;491;53.480;10.174;2023-08-01T06:06:50;3.80;;;2.60;;
1004;SDS011;491;53.480;10.174;2023-08-01T06:09:15;6.47;;;3.40;;
1004;SDS011;491;53.480;10.174;2023-08-01T06:11:41;6.17;;;3.10;;
1004;SDS011;491;53.480;10.174;2023-08-01T06:14:08;4.63;;;3.10;;
1004;SDS011;491;53.480;10.174;2023-08-01T06:16:34;5.17;;;3.80;;
1004;SDS011;491;53.480;10.174;2023-08-01T06:19:00;5.30;;;3.40;;
1004;SDS011;491;53.480;10.174;2023-08-01T06:21:26;4.17;;;3.07;;
1004;SDS011;491;53.480;10.174;2023-08-01T06:23:52;5.23;;;2.80;;
1004;SDS011;491;53.480;10.174;2023-08-01T06:26:18;3.10;;;2.27;;
1004;SDS011;491;53.480;10.174;2023-08-01T06:28:44;4.03;;;3.30;;
1004;SDS011;491;53.480;10.174;2023-08-01T06:31:10;4.60;;;3.37;;
1004;SDS011;491;53.480;10.174;2023-08-01T06:33:36;10.00;;;3.50;;
1004;SDS011;491;53.480;10.174;2023-08-01T06:36:02;4.70;;;2.80;;
1004;SDS011;491;53.480;10.174;2023-08-01T06:38:28;7.40;;;3.30;;
1004;SDS011;491;53.480;10.174;2023-08-01T06:40:53;7.23;;;3.70;;
1004;SDS011;491;53.480;10.174;2023-08-01T06:43:19;5.50;;;4.00;;
1004;SDS011;491;53.480;10.174;2023-08-01T06:45:45;5.40;;;4.47;;
1004;SDS011;491;53.480;10.174;2023-08-01T06:48:11;8.87;;;5.73;;
1004;SDS011;491;53.480;10.174;2023-08-01T06:50:37;10.47;;;5.80;;
1004;SDS011;491;53.480;10.174;2023-08-01T06:53:03;5.40;;;4.37;;
1004;SDS011;491;53.480;10.174;2023-08-01T06:55:29;6.83;;;4.00;;
1004;SDS011;491;53.480;10.174;2023-08-01T06:57:55;5.27;;;3.33;;
1004;SDS011;491;53.480;10.174;2023-08-01T07:00:21;5.17;;;3.50;;
1004;SDS011;491;53.480;10.174;2023-08-01T07:02:47;6.90;;;4.40;;
1004;SDS011;491;53.480;10.174;2023-08-01T07:05:13;4.40;;;3.60;;
1004;SDS011;491;53.480;10.174;2023-08-01T07:07:39;4.50;;;2.80;;
1004;SDS011;491;53.480;10.174;2023-08-01T07:10:05;5.50;;;2.17;;
1004;SDS011;491;53.480;10.174;2023-08-01T07:12:31;5.70;;;4.17;;
1004;SDS011;491;53.480;10.174;2023-08-01T07:14:57;3.37;;;2.30;;
1004;SDS011;491;53.480;10.174;2023-08-01T07:17:23;3.17;;;1.63;;
1004;SDS011;491;53.480;10.174;2023-08-01T07:19:49;3.43;;;1.77;;
1004;SDS011;491;53.480;10.174;2023-08-01T07:22:15;3.40;;;1.47;;
1004;SDS011;491;53.480;10.174;2023-08-01T07:24:40;2.33;;;1.20;;
1004;SDS011;491;53.480;10.174;2023-08-01T07:27:06;4.07;;;1.60;;
1004;SDS011;491;53.480;10.174;2023-08-01T07:29:32;3.77;;;1.67;;
1004;SDS011;491;53.480;10.174;2023-08-01T07:31:58;3.30;;;1.77;;
1004;SDS011;491;53.480;10.174;2023-08-01T07:34:24;4.43;;;1.70;;
1004;SDS011;491;53.480;10.174;2023-08-01T07:36:50;3.63;;;1.50;;
1004;SDS011;491;53.480;10.174;2023-08-01T07:39:16;2.67;;;1.33;;
1004;SDS011;491;53.480;10.174;2023-08-01T07:41:42;3.47;;;1.20;;
1004;SDS011;491;53.480;10.174;2023-08-01T07:44:08;2.00;;;0.53;;
1004;SDS011;491;53.480;10.174;2023-08-01T07:46:34;3.30;;;1.43;;
1004;SDS011;491;53.480;10.174;2023-08-01T07:48:59;4.37;;;1.40;;
1004;SDS011;491;53.480;10.174;2023-08-01T07:51:26;6.50;;;2.13;;
1004;SDS011;491;53.480;10.174;2023-08-01T07:53:53;5.43;;;1.50;;
1004;SDS011;491;53.480;10.174;2023-08-01T07:56:19;3.30;;;0.80;;
1004;SDS011;491;53.480;10.174;2023-08-01T07:58:45;4.43;;;1.10;;
1004;SDS011;491;53.480;10.174;2023-08-01T08:01:11;3.63;;;1.60;;
1004;SDS011;491;53.480;10.174;2023-08-01T08:03:40;4.07;;;1.40;;
1004;SDS011;491;53.480;10.174;2023-08-01T08:06:09;3.90;;;1.37;;
1004;SDS011;491;53.480;10.174;2023-08-01T08:08:35;3.43;;;1.00;;
1004;SDS011;491;53.480;10.174;2023-08-01T08:11:01;2.60;;;1.50;;
1004;SDS011;491;53.480;10.174;2023-08-01T08:13:27;3.07;;;1.23;;
1004;SDS011;491;53.480;10.174;2023-08-01T08:15:56;4.63;;;1.93;;
1004;SDS011;491;53.480;10.174;2023-08-01T08:18:23;7.40;;;1.70;;
1004;SDS011;491;53.480;10.174;2023-08-01T08:20:49;4.23;;;1.57;;
1004;SDS011;491;53.480;10.174;2023-08-01T08:23:15;6.47;;;1.80;;
1004;SDS011;491;53.480;10.174;2023-08-01T08:25:41;7.23;;;2.00;;
1004;SDS011;491;53.480;10.174;2023-08-01T08:28:09;2.70;;;1.33;;
1004;SDS011;491;53.480;10.174;2023-08-01T08:30:35;4.23;;;1.40;;
1004;SDS011;491;53.480;10.174;2023-08-01T08:33:04;4.67;;;1.40;;
1004;SDS011;491;53.480;10.174;2023-08-01T08:35:31;4.13;;;1.80;;
1004;SDS011;491;53.480;10.174;2023-08-01T08:37:58;6.77;;;1.70;;
1004;SDS011;491;53.480;10.174;2023-08-01T08:40:24;5.13;;;1.93;;
1004;SDS011;491;53.480;10.174;2023-08-01T08:42:52;6.43;;;1.70;;
1004;SDS011;491;53.480;10.174;2023-08-01T08:45:19;3.47;;;1.60;;
1004;SDS011;491;53.480;10.174;2023-08-01T08:47:47;4.97;;;2.50;;
1004;SDS011;491;53.480;10.174;2023-08-01T08:50:14;5.30;;;2.73;;
1004;SDS011;491;53.480;10.174;2023-08-01T08:52:41;4.80;;;3.23;;
1004;SDS011;491;53.480;10.174;2023-08-01T08:55:07;3.70;;;2.23;;
1004;SDS011;491;53.480;10.174;2023-08-01T08:57:33;5.30;;;2.70;;
1004;SDS011;491;53.480;10.174;2023-08-01T08:59:59;5.77;;;2.90;;
1004;SDS011;491;53.480;10.174;2023-08-01T09:02:29;4.60;;;2.50;;
1004;SDS011;491;53.480;10.174;2023-08-01T09:04:56;9.37;;;3.40;;
1004;SDS011;491;53.480;10.174;2023-08-01T09:07:23;12.63;;;4.67;;
1004;SDS011;491;53.480;10.174;2023-08-01T09:09:49;6.50;;;3.73;;
1004;SDS011;491;53.480;10.174;2023-08-01T09:12:15;5.93;;;3.00;;
1004;SDS011;491;53.480;10.174;2023-08-01T09:14:41;4.20;;;2.67;;
1004;SDS011;491;53.480;10.174;2023-08-01T09:17:08;5.40;;;3.10;;
1004;SDS011;491;53.480;10.174;2023-08-01T09:19:34;4.00;;;2.53;;
1004;SDS011;491;53.480;10.174;2023-08-01T09:22:00;4.50;;;2.67;;
1004;SDS011;491;53.480;10.174;2023-08-01T09:24:26;6.13;;;2.87;;
1004;SDS011;491;53.480;10.174;2023-08-01T09:26:52;3.37;;;1.80;;
1004;SDS011;491;53.480;10.174;2023-08-01T09:29:27;3.53;;;1.80;;
1004;SDS011;491;53.480;10.174;2023-08-01T09:31:53;7.90;;;1.40;;
1004;SDS011;491;53.480;10.174;2023-08-01T09:36:45;4.63;;;1.50;;
1004;SDS011;491;53.480;10.174;2023-08-01T09:39:15;2.60;;;1.40;;
1004;SDS011;491;53.480;10.174;2023-08-01T09:41:41;2.63;;;1.90;;
1004;SDS011;491;53.480;10.174;2023-08-01T09:44:10;3.63;;;1.60;;
1004;SDS011;491;53.480;10.174;2023-08-01T09:46:36;2.53;;;1.17;;
1004;SDS011;491;53.480;10.174;2023-08-01T09:49:06;1.73;;;1.17;;
1004;SDS011;491;53.480;10.174;2023-08-01T09:51:32;2.20;;;0.93;;
1004;SDS011;491;53.480;10.174;2023-08-01T09:53:58;1.80;;;1.00;;
1004;SDS011;491;53.480;10.174;2023-08-01T09:56:25;2.23;;;0.80;;
1004;SDS011;491;53.480;10.174;2023-08-01T09:58:52;2.67;;;0.77;;
1004;SDS011;491;53.480;10.174;2023-08-01T10:01:19;2.93;;;1.27;;
1004;SDS011;491;53.480;10.174;2023-08-01T10:03:46;3.40;;;1.00;;
1004;SDS011;491;53.480;10.174;2023-08-01T10:06:19;1.53;;;0.60;;
1004;SDS011;491;53.480;10.174;2023-08-01T10:08:46;2.43;;;0.43;;
1004;SDS011;491;53.480;10.174;2023-08-01T10:11:14;3.40;;;1.00;;
1004;SDS011;491;53.480;10.174;2023-08-01T10:13:41;0.97;;;0.70;;
1004;SDS011;491;53.480;10.174;2023-08-01T10:16:07;1.60;;;0.90;;
1004;SDS011;491;53.480;10.174;2023-08-01T10:18:34;1.73;;;0.40;;
1004;SDS011;491;53.480;10.174;2023-08-01T10:21:02;2.13;;;1.00;;
1004;SDS011;491;53.480;10.174;2023-08-01T10:23:28;2.57;;;0.70;;
1004;SDS011;491;53.480;10.174;2023-08-01T10:25:54;1.93;;;0.83;;
1004;SDS011;491;53.480;10.174;2023-08-01T10:28:30;2.10;;;0.57;;
1004;SDS011;491;53.480;10.174;2023-08-01T10:31:07;1.13;;;0.40;;
1004;SDS011;491;53.480;10.174;2023-08-01T10:33:33;2.77;;;0.60;;
1004;SDS011;491;53.480;10.174;2023-08-01T10:35:59;3.43;;;0.97;;
1004;SDS011;491;53.480;10.174;2023-08-01T10:38:43;2.70;;;0.57;;
1004;SDS011;491;53.480;10.174;2023-08-01T10:41:17;1.90;;;0.43;;
1004;SDS011;491;53.480;10.174;2023-08-01T10:43:44;2.60;;;0.93;;
1004;SDS011;491;53.480;10.174;2023-08-01T10:46:09;2.27;;;0.33;;
1004;SDS011;491;53.480;10.174;2023-08-01T10:48:47;0.97;;;0.40;;
1004;SDS011;491;53.480;10.174;2023-08-01T10:51:12;3.30;;;0.90;;
1004;SDS011;491;53.480;10.174;2023-08-01T10:53:38;3.33;;;0.67;;
1004;SDS011;491;53.480;10.174;2023-08-01T10:56:05;1.67;;;0.20;;
1004;SDS011;491;53.480;10.174;2023-08-01T10:58:31;3.57;;;0.60;;
1004;SDS011;491;53.480;10.174;2023-08-01T11:00:58;1.33;;;0.30;;
1004;SDS011;491;53.480;10.174;2023-08-01T11:03:33;1.50;;;0.40;;
1004;SDS011;491;53.480;10.174;2023-08-01T11:05:59;1.93;;;0.50;;
1004;SDS011;491;53.480;10.174;2023-08-01T11:08:33;1.30;;;0.47;;
1004;SDS011;491;53.480;10.174;2023-08-01T11:10:59;2.83;;;0.37;;
1004;SDS011;491;53.480;10.174;2023-08-01T11:13:25;2.13;;;0.60;;
1004;SDS011;491;53.480;10.174;2023-08-01T11:15:54;1.00;;;0.40;;
1004;SDS011;491;53.480;10.174;2023-08-01T11:18:21;1.40;;;0.40;;
1004;SDS011;491;53.480;10.174;2023-08-01T11:20:47;5.90;;;0.40;;
1004;SDS011;491;53.480;10.174;2023-08-01T11:23:13;3.50;;;0.87;;
1004;SDS011;491;53.480;10.174;2023-08-01T11:25:40;1.23;;;0.33;;
1004;SDS011;491;53.480;10.174;2023-08-01T11:28:08;1.53;;;0.50;;
1004;SDS011;491;53.480;10.174;2023-08-01T11:30:34;0.93;;;0.20;;
1004;SDS011;491;53.480;10.174;2023-08-01T11:33:00;1.77;;;0.20;;
1004;SDS011;491;53.480;10.174;2023-08-01T11:35:27;2.10;;;0.20;;
1004;SDS011;491;53.480;10.174;2023-08-01T11:37:53;0.60;;;0.20;;
1004;SDS011;491;53.480;10.174;2023-08-01T11:40:19;3.47;;;0.33;;
1004;SDS011;491;53.480;10.174;2023-08-01T11:42:49;3.10;;;0.30;;
1004;SDS011;491;53.480;10.174;2023-08-01T11:45:19;2.40;;;0.50;;
1004;SDS011;491;53.480;10.174;2023-08-01T11:47:46;1.10;;;0.40;;
1004;SDS011;491;53.480;10.174;2023-08-01T11:50:12;1.80;;;0.20;;
1004;SDS011;491;53.480;10.174;2023-08-01T11:52:38;3.60;;;0.30;;
1004;SDS011;491;53.480;10.174;2023-08-01T11:55:04;1.60;;;0.20;;
1004;SDS011;491;53.480;10.174;2023-08-01T11:57:33;2.63;;;0.40;;
1004;SDS011;491;53.480;10.174;2023-08-01T11:59:59;1.00;;;0.23;;
1004;SDS011;491;53.480;10.174;2023-08-01T12:02:25;1.33;;;0.30;;
1004;SDS011;491;53.480;10.174;2023-08-01T12:04:51;0.93;;;0.20;;
1004;SDS011;491;53.480;10.174;2023-08-01T12:07:18;1.60;;;0.30;;
1004;SDS011;491;53.480;10.174;2023-08-01T12:09:44;1.03;;;0.20;;
1004;SDS011;491;53.480;10.174;2023-08-01T12:12:20;0.80;;;0.20;;
1004;SDS011;491;53.480;10.174;2023-08-01T12:14:46;2.00;;;0.40;;
1004;SDS011;491;53.480;10.174;2023-08-01T12:17:12;1.40;;;0.43;;
1004;SDS011;491;53.480;10.174;2023-08-01T12:19:38;0.77;;;0.30;;
1004;SDS011;491;53.480;10.174;2023-08-01T12:22:04;2.10;;;0.20;;
1004;SDS011;491;53.480;10.174;2023-08-01T12:24:30;0.87;;;0.30;;
1004;SDS011;491;53.480;10.174;2023-08-01T12:26:56;0.50;;;0.20;;
1004;SDS011;491;53.480;10.174;2023-08-01T12:29:22;0.50;;;0.20;;
1004;SDS011;491;53.480;10.174;2023-08-01T12:31:48;0.63;;;0.20;;
1004;SDS011;491;53.480;10.174;2023-08-01T12:34:17;0.77;;;0.20;;
1004;SDS011;491;53.480;10.174;2023-08-01T12:36:43;1.20;;;0.33;;
1004;SDS011;491;53.480;10.174;2023-08-01T12:39:12;2.20;;;0.57;;
1004;SDS011;491;53.480;10.174;2023-08-01T12:41:38;2.67;;;0.20;;
1004;SDS011;491;53.480;10.174;2023-08-01T12:44:04;1.10;;;0.20;;
1004;SDS011;491;53.480;10.174;2023-08-01T12:46:30;1.07;;;0.20;;
1004;SDS011;491;53.480;10.174;2023-08-01T12:49:00;0.90;;;0.20;;
1004;SDS011;491;53.480;10.174;2023-08-01T12:51:26;1.43;;;0.30;;
1004;SDS011;491;53.480;10.174;2023-08-01T12:53:52;0.40;;;0.20;;
1004;SDS011;491;53.480;10.174;2023-08-01T12:56:18;0.70;;;0.20;;
1004;SDS011;491;53.480;10.174;2023-08-01T12:58:43;1.13;;;0.30;;
1004;SDS011;491;53.480;10.174;2023-08-01T13:01:09;0.70;;;0.27;;
1004;SDS011;491;53.480;10.174;2023-08-01T13:03:41;1.53;;;0.30;;
1004;SDS011;491;53.480;10.174;2023-08-01T13:06:10;0.90;;;0.30;;
1004;SDS011;491;53.480;10.174;2023-08-01T13:08:36;2.33;;;0.33;;
1004;SDS011;491;53.480;10.174;2023-08-01T13:11:08;0.60;;;0.20;;
1004;SDS011;491;53.480;10.174;2023-08-01T13:13:35;1.13;;;0.20;;
1004;SDS011;491;53.480;10.174;2023-08-01T13:16:01;2.10;;;0.20;;
1004;SDS011;491;53.480;10.174;2023-08-01T13:18:27;1.30;;;0.30;;
1004;SDS011;491;53.480;10.174;2023-08-01T13:20:53;1.90;;;0.47;;
1004;SDS011;491;53.480;10.174;2023-08-01T13:23:19;1.53;;;0.30;;
1004;SDS011;491;53.480;10.174;2023-08-01T13:25:44;1.70;;;0.40;;
1004;SDS011;491;53.480;10.174;2023-08-01T13:28:13;1.37;;;0.20;;
1004;SDS011;491;53.480;10.174;2023-08-01T13:30:39;1.93;;;0.20;;
1004;SDS011;491;53.480;10.174;2023-08-01T13:33:05;1.73;;;0.20;;
1004;SDS011;491;53.480;10.174;2023-08-01T13:35:31;0.90;;;0.30;;
1004;SDS011;491;53.480;10.174;2023-08-01T13:37:57;1.40;;;0.23;;
1004;SDS011;491;53.480;10.174;2023-08-01T13:40:24;0.70;;;0.20;;
1004;SDS011;491;53.480;10.174;2023-08-01T13:42:50;1.03;;;0.20;;
1004;SDS011;491;53.480;10.174;2023-08-01T13:45:16;0.80;;;0.20;;
1004;SDS011;491;53.480;10.174;2023-08-01T13:47:42;1.03;;;0.20;;
1004;SDS011;491;53.480;10.174;2023-08-01T13:50:08;1.83;;;0.30;;
1004;SDS011;491;53.480;10.174;2023-08-01T13:52:36;0.90;;;0.20;;
1004;SDS011;491;53.480;10.174;2023-08-01T13:55:02;1.50;;;0.27;;
1004;SDS011;491;53.480;10.174;2023-08-01T13:57:28;0.50;;;0.20;;
1004;SDS011;491;53.480;10.174;2023-08-01T13:59:54;1.00;;;0.20;;
1004;SDS011;491;53.480;10.174;2023-08-01T14:02:20;1.70;;;0.30;;
1004;SDS011;491;53.480;10.174;2023-08-01T14:04:46;0.97;;;0.30;;
1004;SDS011;491;53.480;10.174;2023-08-01T14:07:12;1.03;;;0.30;;
1004;SDS011;491;53.480;10.174;2023-08-01T14:09:38;0.80;;;0.20;;
1004;SDS011;491;53.480;10.174;2023-08-01T14:12:04;0.67;;;0.30;;
1004;SDS011;491;53.480;10.174;2023-08-01T14:14:30;1.97;;;0.30;;
1004;SDS011;491;53.480;10.174;2023-08-01T14:16:56;1.17;;;0.30;;
1004;SDS011;491;53.480;10.174;2023-08-01T14:19:22;0.73;;;0.20;;
1004;SDS011;491;53.480;10.174;2023-08-01T14:21:48;0.80;;;0.20;;
1004;SDS011;491;53.480;10.174;2023-08-01T14:24:14;0.70;;;0.30;;
1004;SDS011;491;53.480;10.174;2023-08-01T14:26:40;1.00;;;0.33;;
1004;SDS011;491;53.480;10.174;2023-08-01T14:29:06;2.00;;;0.40;;
1004;SDS011;491;53.480;10.174;2023-08-01T14:31:32;1.23;;;0.30;;
1004;SDS011;491;53.480;10.174;2023-08-01T14:33:58;2.47;;;0.53;;
1004;SDS011;491;53.480;10.174;2023-08-01T14:36:24;1.20;;;0.60;;
1004;SDS011;491;53.480;10.174;2023-08-01T14:38:49;1.80;;;0.30;;
1004;SDS011;491;53.480;10.174;2023-08-01T14:41:19;2.40;;;0.30;;
1004;SDS011;491;53.480;10.174;2023-08-01T14:43:45;1.67;;;0.20;;
1004;SDS011;491;53.480;10.174;2023-08-01T14:46:11;0.40;;;0.20;;
1004;SDS011;491;53.480;10.174;2023-08-01T14:48:37;1.77;;;0.20;;
1004;SDS011;491;53.480;10.174;2023-08-01T14:51:06;1.93;;;0.20;;
1004;SDS011;491;53.480;10.174;2023-08-01T14:53:32;1.20;;;0.20;;
1004;SDS011;491;53.480;10.174;2023-08-01T14:55:58;2.30;;;0.20;;
1004;SDS011;491;53.480;10.174;2023-08-01T14:58:29;2.00;;;0.20;;
1004;SDS011;491;53.480;10.174;2023-08-01T15:00:55;1.00;;;0.20;;
1004;SDS011;491;53.480;10.174;2023-08-01T15:03:21;0.50;;;0.20;;
1004;SDS011;491;53.480;10.174;2023-08-01T15:05:47;1.23;;;0.20;;
1004;SDS011;491;53.480;10.174;2023-08-01T15:08:19;1.10;;;0.20;;
1004;SDS011;491;53.480;10.174;2023-08-01T15:10:54;0.60;;;0.20;;
1004;SDS011;491;53.480;10.174;2023-08-01T15:13:22;2.37;;;0.30;;